sensor_id;sensor_type;location;lat;lon;timestamp;temperature;humidity
71047;SHT31;58703;48.978;8.982;2022-07-24T00:02:05;18.94;87.18
71047;SHT31;58703;48.978;8.982;2022-07-24T00:04:31;18.92;86.99
71047;SHT31;58703;48.978;8.982;2022-07-24T00:06:56;18.84;87.45
71047;SHT31;58703;48.978;8.982;2022-07-24T00:09:22;18.85;87.21
71047;SHT31;58703;48.978;8.982;2022-07-24T00:11:47;18.78;87.18
71047;SHT31;58703;48.978;8.982;2022-07-24T00:14:13;18.73;87.47
71047;SHT31;58703;48.978;8.982;2022-07-24T00:16:39;18.79;87.28
71047;SHT31;58703;48.978;8.982;2022-07-24T00:19:05;18.69;87.72
71047;SHT31;58703;48.978;8.982;2022-07-24T00:21:30;18.72;87.89
71047;SHT31;58703;48.978;8.982;2022-07-24T00:23:56;18.64;87.76
71047;SHT31;58703;48.978;8.982;2022-07-24T00:26:22;18.58;88.15
71047;SHT31;58703;48.978;8.982;2022-07-24T00:28:47;18.54;88.41
71047;SHT31;58703;48.978;8.982;2022-07-24T00:31:14;18.54;88.30
71047;SHT31;58703;48.978;8.982;2022-07-24T00:33:39;18.52;88.31
71047;SHT31;58703;48.978;8.982;2022-07-24T00:36:05;18.48;88.71
71047;SHT31;58703;48.978;8.982;2022-07-24T00:38:31;18.54;88.35
71047;SHT31;58703;48.978;8.982;2022-07-24T00:40:57;18.51;88.58
71047;SHT31;58703;48.978;8.982;2022-07-24T00:43:22;18.45;88.63
71047;SHT31;58703;48.978;8.982;2022-07-24T00:45:48;18.35;89.45
71047;SHT31;58703;48.978;8.982;2022-07-24T00:48:14;18.24;90.06
71047;SHT31;58703;48.978;8.982;2022-07-24T00:50:40;18.27;89.50
71047;SHT31;58703;48.978;8.982;2022-07-24T00:53:06;18.27;89.75
71047;SHT31;58703;48.978;8.982;2022-07-24T00:55:33;18.24;89.62
71047;SHT31;58703;48.978;8.982;2022-07-24T00:57:59;18.23;89.56
71047;SHT31;58703;48.978;8.982;2022-07-24T01:00:25;18.17;89.68
71047;SHT31;58703;48.978;8.982;2022-07-24T01:02:51;18.23;89.26
71047;SHT31;58703;48.978;8.982;2022-07-24T01:05:17;18.23;89.35
71047;SHT31;58703;48.978;8.982;2022-07-24T01:07:43;18.17;89.67
71047;SHT31;58703;48.978;8.982;2022-07-24T01:10:09;18.10;89.71
71047;SHT31;58703;48.978;8.982;2022-07-24T01:12:37;18.07;89.76
71047;SHT31;58703;48.978;8.982;2022-07-24T01:15:05;17.98;89.83
71047;SHT31;58703;48.978;8.982;2022-07-24T01:17:33;17.93;90.43
71047;SHT31;58703;48.978;8.982;2022-07-24T01:19:59;17.84;90.87
71047;SHT31;58703;48.978;8.982;2022-07-24T01:22:26;17.82;90.49
71047;SHT31;58703;48.978;8.982;2022-07-24T01:24:51;17.82;90.66
71047;SHT31;58703;48.978;8.982;2022-07-24T01:27:17;17.70;91.20
71047;SHT31;58703;48.978;8.982;2022-07-24T01:29:43;17.62;90.81
71047;SHT31;58703;48.978;8.982;2022-07-24T01:32:09;17.53;91.95
71047;SHT31;58703;48.978;8.982;2022-07-24T01:34:34;17.49;91.91
71047;SHT31;58703;48.978;8.982;2022-07-24T01:37:00;17.45;91.92
71047;SHT31;58703;48.978;8.982;2022-07-24T01:39:26;17.39;92.11
71047;SHT31;58703;48.978;8.982;2022-07-24T01:41:51;17.28;92.22
71047;SHT31;58703;48.978;8.982;2022-07-24T01:44:17;17.25;92.12
71047;SHT31;58703;48.978;8.982;2022-07-24T01:46:42;17.18;92.46
71047;SHT31;58703;48.978;8.982;2022-07-24T01:49:09;17.11;91.51
71047;SHT31;58703;48.978;8.982;2022-07-24T01:51:35;17.07;93.13
71047;SHT31;58703;48.978;8.982;2022-07-24T01:54:01;17.01;93.40
71047;SHT31;58703;48.978;8.982;2022-07-24T01:56:29;16.94;92.80
71047;SHT31;58703;48.978;8.982;2022-07-24T01:58:54;16.96;93.01
71047;SHT31;58703;48.978;8.982;2022-07-24T02:01:20;16.94;92.76
71047;SHT31;58703;48.978;8.982;2022-07-24T02:03:45;16.87;93.02
71047;SHT31;58703;48.978;8.982;2022-07-24T02:06:12;16.74;93.50
71047;SHT31;58703;48.978;8.982;2022-07-24T02:08:37;16.65;93.28
71047;SHT31;58703;48.978;8.982;2022-07-24T02:11:03;16.60;93.23
71047;SHT31;58703;48.978;8.982;2022-07-24T02:13:29;16.50;93.50
71047;SHT31;58703;48.978;8.982;2022-07-24T02:15:54;16.53;92.54
71047;SHT31;58703;48.978;8.982;2022-07-24T02:18:20;16.57;93.48
71047;SHT31;58703;48.978;8.982;2022-07-24T02:20:45;16.70;93.99
71047;SHT31;58703;48.978;8.982;2022-07-24T02:23:11;16.71;93.58
71047;SHT31;58703;48.978;8.982;2022-07-24T02:25:46;16.63;93.28
71047;SHT31;58703;48.978;8.982;2022-07-24T02:28:12;16.50;94.17
71047;SHT31;58703;48.978;8.982;2022-07-24T02:30:38;16.37;94.54
71047;SHT31;58703;48.978;8.982;2022-07-24T02:33:04;16.30;94.78
71047;SHT31;58703;48.978;8.982;2022-07-24T02:35:29;16.27;94.96
71047;SHT31;58703;48.978;8.982;2022-07-24T02:37:55;16.30;94.76
71047;SHT31;58703;48.978;8.982;2022-07-24T02:40:20;16.27;94.39
71047;SHT31;58703;48.978;8.982;2022-07-24T02:42:46;16.20;95.08
71047;SHT31;58703;48.978;8.982;2022-07-24T02:45:12;16.16;95.08
71047;SHT31;58703;48.978;8.982;2022-07-24T02:47:48;16.17;95.08
71047;SHT31;58703;48.978;8.982;2022-07-24T02:50:15;16.14;95.15
71047;SHT31;58703;48.978;8.982;2022-07-24T02:52:42;16.16;95.08
71047;SHT31;58703;48.978;8.982;2022-07-24T02:55:08;16.13;94.76
71047;SHT31;58703;48.978;8.982;2022-07-24T02:57:33;16.09;94.87
71047;SHT31;58703;48.978;8.982;2022-07-24T02:59:59;15.99;94.69
71047;SHT31;58703;48.978;8.982;2022-07-24T03:02:25;15.97;94.12
71047;SHT31;58703;48.978;8.982;2022-07-24T03:04:50;15.99;94.69
71047;SHT31;58703;48.978;8.982;2022-07-24T03:07:16;15.93;94.66
71047;SHT31;58703;48.978;8.982;2022-07-24T03:09:41;15.95;94.64
71047;SHT31;58703;48.978;8.982;2022-07-24T03:12:07;15.92;94.89
71047;SHT31;58703;48.978;8.982;2022-07-24T03:14:33;15.90;94.83
71047;SHT31;58703;48.978;8.982;2022-07-24T03:16:59;15.89;95.05
71047;SHT31;58703;48.978;8.982;2022-07-24T03:19:25;15.90;94.80
71047;SHT31;58703;48.978;8.982;2022-07-24T03:21:50;15.89;94.88
71047;SHT31;58703;48.978;8.982;2022-07-24T03:24:16;15.95;94.78
71047;SHT31;58703;48.978;8.982;2022-07-24T03:26:41;15.90;94.80
71047;SHT31;58703;48.978;8.982;2022-07-24T03:29:07;15.79;95.18
71047;SHT31;58703;48.978;8.982;2022-07-24T03:31:33;15.72;95.48
71047;SHT31;58703;48.978;8.982;2022-07-24T03:33:58;15.66;95.70
71047;SHT31;58703;48.978;8.982;2022-07-24T03:36:24;15.61;95.90
71047;SHT31;58703;48.978;8.982;2022-07-24T03:38:49;15.56;96.07
71047;SHT31;58703;48.978;8.982;2022-07-24T03:41:15;15.58;95.80
71047;SHT31;58703;48.978;8.982;2022-07-24T03:43:40;15.58;95.75
71047;SHT31;58703;48.978;8.982;2022-07-24T03:46:06;15.52;95.96
71047;SHT31;58703;48.978;8.982;2022-07-24T03:48:32;15.45;96.08
71047;SHT31;58703;48.978;8.982;2022-07-24T03:50:57;15.51;96.20
71047;SHT31;58703;48.978;8.982;2022-07-24T03:53:23;15.52;96.16
71047;SHT31;58703;48.978;8.982;2022-07-24T03:55:49;15.56;96.01
71047;SHT31;58703;48.978;8.982;2022-07-24T03:58:14;15.55;95.93
71047;SHT31;58703;48.978;8.982;2022-07-24T04:00:40;15.55;95.90
71047;SHT31;58703;48.978;8.982;2022-07-24T04:03:05;15.54;95.75
71047;SHT31;58703;48.978;8.982;2022-07-24T04:05:31;15.54;95.79
71047;SHT31;58703;48.978;8.982;2022-07-24T04:07:56;15.63;95.70
71047;SHT31;58703;48.978;8.982;2022-07-24T04:10:22;15.70;95.48
71047;SHT31;58703;48.978;8.982;2022-07-24T04:12:47;15.73;95.15
71047;SHT31;58703;48.978;8.982;2022-07-24T04:15:13;15.65;95.39
71047;SHT31;58703;48.978;8.982;2022-07-24T04:17:41;15.65;95.31
71047;SHT31;58703;48.978;8.982;2022-07-24T04:20:07;15.66;95.07
71047;SHT31;58703;48.978;8.982;2022-07-24T04:22:33;15.73;94.88
71047;SHT31;58703;48.978;8.982;2022-07-24T04:24:59;15.78;94.56
71047;SHT31;58703;48.978;8.982;2022-07-24T04:27:25;15.85;94.62
71047;SHT31;58703;48.978;8.982;2022-07-24T04:29:50;15.85;94.44
71047;SHT31;58703;48.978;8.982;2022-07-24T04:32:16;16.03;94.21
71047;SHT31;58703;48.978;8.982;2022-07-24T04:34:41;16.19;93.51
71047;SHT31;58703;48.978;8.982;2022-07-24T04:37:07;16.34;93.05
71047;SHT31;58703;48.978;8.982;2022-07-24T04:39:32;16.53;92.87
71047;SHT31;58703;48.978;8.982;2022-07-24T04:41:58;16.74;92.62
71047;SHT31;58703;48.978;8.982;2022-07-24T04:44:23;16.75;92.07
71047;SHT31;58703;48.978;8.982;2022-07-24T04:46:49;16.77;91.91
71047;SHT31;58703;48.978;8.982;2022-07-24T04:49:14;16.98;91.42
71047;SHT31;58703;48.978;8.982;2022-07-24T04:51:40;16.96;90.98
71047;SHT31;58703;48.978;8.982;2022-07-24T04:54:05;17.35;90.36
71047;SHT31;58703;48.978;8.982;2022-07-24T04:56:31;17.54;89.53
71047;SHT31;58703;48.978;8.982;2022-07-24T04:58:59;17.70;88.48
71047;SHT31;58703;48.978;8.982;2022-07-24T05:01:24;17.91;88.07
71047;SHT31;58703;48.978;8.982;2022-07-24T05:03:50;18.34;86.43
71047;SHT31;58703;48.978;8.982;2022-07-24T05:06:16;18.86;84.42
71047;SHT31;58703;48.978;8.982;2022-07-24T05:08:41;18.58;84.56
71047;SHT31;58703;48.978;8.982;2022-07-24T05:11:07;18.68;84.74
71047;SHT31;58703;48.978;8.982;2022-07-24T05:13:33;18.81;83.75
71047;SHT31;58703;48.978;8.982;2022-07-24T05:15:58;18.92;82.71
71047;SHT31;58703;48.978;8.982;2022-07-24T05:18:24;19.19;83.03
71047;SHT31;58703;48.978;8.982;2022-07-24T05:20:49;19.17;82.85
71047;SHT31;58703;48.978;8.982;2022-07-24T05:23:15;19.54;82.14
71047;SHT31;58703;48.978;8.982;2022-07-24T05:25:40;19.92;81.08
71047;SHT31;58703;48.978;8.982;2022-07-24T05:28:06;20.07;80.11
71047;SHT31;58703;48.978;8.982;2022-07-24T05:30:31;20.46;78.30
71047;SHT31;58703;48.978;8.982;2022-07-24T05:32:57;20.56;78.77
71047;SHT31;58703;48.978;8.982;2022-07-24T05:35:22;20.89;77.72
71047;SHT31;58703;48.978;8.982;2022-07-24T05:37:48;20.99;77.01
71047;SHT31;58703;48.978;8.982;2022-07-24T05:40:14;21.33;75.99
71047;SHT31;58703;48.978;8.982;2022-07-24T05:42:39;21.20;76.30
71047;SHT31;58703;48.978;8.982;2022-07-24T05:45:05;21.35;75.89
71047;SHT31;58703;48.978;8.982;2022-07-24T05:47:38;21.37;75.98
71047;SHT31;58703;48.978;8.982;2022-07-24T05:50:11;21.15;76.49
71047;SHT31;58703;48.978;8.982;2022-07-24T05:52:37;21.06;76.74
71047;SHT31;58703;48.978;8.982;2022-07-24T05:55:03;22.15;73.35
71047;SHT31;58703;48.978;8.982;2022-07-24T05:57:32;22.30;72.97
71047;SHT31;58703;48.978;8.982;2022-07-24T05:59:58;22.56;72.65
71047;SHT31;58703;48.978;8.982;2022-07-24T06:02:23;22.40;74.13
71047;SHT31;58703;48.978;8.982;2022-07-24T06:04:49;22.29;73.44
71047;SHT31;58703;48.978;8.982;2022-07-24T06:07:14;22.16;73.35
71047;SHT31;58703;48.978;8.982;2022-07-24T06:09:40;22.30;73.21
71047;SHT31;58703;48.978;8.982;2022-07-24T06:12:06;22.12;74.02
71047;SHT31;58703;48.978;8.982;2022-07-24T06:14:32;22.35;73.08
71047;SHT31;58703;48.978;8.982;2022-07-24T06:17:01;22.05;73.59
71047;SHT31;58703;48.978;8.982;2022-07-24T06:19:27;22.74;72.73
71047;SHT31;58703;48.978;8.982;2022-07-24T06:21:52;23.29;70.78
71047;SHT31;58703;48.978;8.982;2022-07-24T06:24:18;24.08;69.01
71047;SHT31;58703;48.978;8.982;2022-07-24T06:26:44;24.41;66.56
71047;SHT31;58703;48.978;8.982;2022-07-24T06:29:09;24.65;63.64
71047;SHT31;58703;48.978;8.982;2022-07-24T06:31:35;24.80;65.10
71047;SHT31;58703;48.978;8.982;2022-07-24T06:34:01;25.10;63.29
71047;SHT31;58703;48.978;8.982;2022-07-24T06:36:26;25.14;62.57
71047;SHT31;58703;48.978;8.982;2022-07-24T06:38:52;25.41;61.20
71047;SHT31;58703;48.978;8.982;2022-07-24T06:41:18;25.58;60.55
71047;SHT31;58703;48.978;8.982;2022-07-24T06:43:44;25.49;59.59
71047;SHT31;58703;48.978;8.982;2022-07-24T06:46:10;25.83;58.03
71047;SHT31;58703;48.978;8.982;2022-07-24T06:48:35;26.12;59.13
71047;SHT31;58703;48.978;8.982;2022-07-24T06:51:01;25.75;58.80
71047;SHT31;58703;48.978;8.982;2022-07-24T06:53:27;25.98;58.41
71047;SHT31;58703;48.978;8.982;2022-07-24T06:55:52;25.55;58.48
71047;SHT31;58703;48.978;8.982;2022-07-24T06:58:20;26.00;58.28
71047;SHT31;58703;48.978;8.982;2022-07-24T07:00:47;26.36;55.46
71047;SHT31;58703;48.978;8.982;2022-07-24T07:03:12;26.49;54.15
71047;SHT31;58703;48.978;8.982;2022-07-24T07:05:38;25.50;56.71
71047;SHT31;58703;48.978;8.982;2022-07-24T07:08:04;25.32;57.85
71047;SHT31;58703;48.978;8.982;2022-07-24T07:10:30;25.41;58.16
71047;SHT31;58703;48.978;8.982;2022-07-24T07:12:56;25.28;57.94
71047;SHT31;58703;48.978;8.982;2022-07-24T07:15:21;25.22;58.29
71047;SHT31;58703;48.978;8.982;2022-07-24T07:17:47;26.07;56.02
71047;SHT31;58703;48.978;8.982;2022-07-24T07:20:13;26.65;54.47
71047;SHT31;58703;48.978;8.982;2022-07-24T07:22:40;27.35;51.71
71047;SHT31;58703;48.978;8.982;2022-07-24T07:25:07;27.25;52.29
71047;SHT31;58703;48.978;8.982;2022-07-24T07:27:32;28.00;51.67
71047;SHT31;58703;48.978;8.982;2022-07-24T07:29:58;27.13;53.15
71047;SHT31;58703;48.978;8.982;2022-07-24T07:32:24;26.75;53.69
71047;SHT31;58703;48.978;8.982;2022-07-24T07:34:50;26.99;54.30
71047;SHT31;58703;48.978;8.982;2022-07-24T07:37:16;27.39;53.80
71047;SHT31;58703;48.978;8.982;2022-07-24T07:39:41;27.84;51.04
71047;SHT31;58703;48.978;8.982;2022-07-24T07:42:07;27.15;52.57
71047;SHT31;58703;48.978;8.982;2022-07-24T07:44:35;26.67;53.87
71047;SHT31;58703;48.978;8.982;2022-07-24T07:47:02;27.32;55.09
71047;SHT31;58703;48.978;8.982;2022-07-24T07:49:27;27.53;53.15
71047;SHT31;58703;48.978;8.982;2022-07-24T07:51:53;26.95;55.07
71047;SHT31;58703;48.978;8.982;2022-07-24T07:54:19;27.56;53.66
71047;SHT31;58703;48.978;8.982;2022-07-24T07:56:45;28.28;52.12
71047;SHT31;58703;48.978;8.982;2022-07-24T07:59:10;27.96;51.75
71047;SHT31;58703;48.978;8.982;2022-07-24T08:01:36;26.98;54.17
71047;SHT31;58703;48.978;8.982;2022-07-24T08:04:02;26.57;55.14
71047;SHT31;58703;48.978;8.982;2022-07-24T08:06:28;27.49;53.51
71047;SHT31;58703;48.978;8.982;2022-07-24T08:08:54;26.38;55.07
71047;SHT31;58703;48.978;8.982;2022-07-24T08:11:20;27.47;52.25
71047;SHT31;58703;48.978;8.982;2022-07-24T08:13:45;28.05;50.94
71047;SHT31;58703;48.978;8.982;2022-07-24T08:16:11;28.25;49.60
71047;SHT31;58703;48.978;8.982;2022-07-24T08:18:36;28.76;49.63
71047;SHT31;58703;48.978;8.982;2022-07-24T08:21:02;29.38;47.77
71047;SHT31;58703;48.978;8.982;2022-07-24T08:23:28;29.92;47.07
71047;SHT31;58703;48.978;8.982;2022-07-24T08:25:54;29.67;47.07
71047;SHT31;58703;48.978;8.982;2022-07-24T08:28:19;29.58;47.66
71047;SHT31;58703;48.978;8.982;2022-07-24T08:30:46;29.87;47.55
71047;SHT31;58703;48.978;8.982;2022-07-24T08:33:12;29.54;46.88
71047;SHT31;58703;48.978;8.982;2022-07-24T08:35:37;28.58;48.91
71047;SHT31;58703;48.978;8.982;2022-07-24T08:38:03;27.94;50.90
71047;SHT31;58703;48.978;8.982;2022-07-24T08:40:33;28.93;48.61
71047;SHT31;58703;48.978;8.982;2022-07-24T08:43:00;29.30;48.68
71047;SHT31;58703;48.978;8.982;2022-07-24T08:45:26;29.63;46.97
71047;SHT31;58703;48.978;8.982;2022-07-24T08:47:53;29.37;47.65
71047;SHT31;58703;48.978;8.982;2022-07-24T08:50:20;28.59;49.06
71047;SHT31;58703;48.978;8.982;2022-07-24T08:52:46;28.49;49.81
71047;SHT31;58703;48.978;8.982;2022-07-24T08:55:12;28.58;49.82
71047;SHT31;58703;48.978;8.982;2022-07-24T08:57:38;28.76;48.96
71047;SHT31;58703;48.978;8.982;2022-07-24T09:00:04;29.88;47.12
71047;SHT31;58703;48.978;8.982;2022-07-24T09:02:30;30.79;45.49
71047;SHT31;58703;48.978;8.982;2022-07-24T09:05:00;30.69;45.21
71047;SHT31;58703;48.978;8.982;2022-07-24T09:07:28;30.43;46.21
71047;SHT31;58703;48.978;8.982;2022-07-24T09:10:07;29.61;47.83
71047;SHT31;58703;48.978;8.982;2022-07-24T09:12:38;29.76;47.26
71047;SHT31;58703;48.978;8.982;2022-07-24T09:15:15;28.96;48.72
71047;SHT31;58703;48.978;8.982;2022-07-24T09:17:55;28.93;48.64
71047;SHT31;58703;48.978;8.982;2022-07-24T09:20:26;29.13;48.48
71047;SHT31;58703;48.978;8.982;2022-07-24T09:22:59;30.70;45.17
71047;SHT31;58703;48.978;8.982;2022-07-24T09:25:28;31.47;43.58
71047;SHT31;58703;48.978;8.982;2022-07-24T09:27:59;30.90;43.20
71047;SHT31;58703;48.978;8.982;2022-07-24T09:30:35;31.24;42.91
71047;SHT31;58703;48.978;8.982;2022-07-24T09:33:08;29.98;45.50
71047;SHT31;58703;48.978;8.982;2022-07-24T09:35:43;30.65;43.52
71047;SHT31;58703;48.978;8.982;2022-07-24T09:38:11;31.09;42.58
71047;SHT31;58703;48.978;8.982;2022-07-24T09:40:43;31.38;42.34
71047;SHT31;58703;48.978;8.982;2022-07-24T09:43:21;32.36;40.55
71047;SHT31;58703;48.978;8.982;2022-07-24T09:48:39;31.13;39.08
71047;SHT31;58703;48.978;8.982;2022-07-24T09:53:35;30.97;39.25
71047;SHT31;58703;48.978;8.982;2022-07-24T09:56:07;31.07;38.60
71047;SHT31;58703;48.978;8.982;2022-07-24T09:58:39;31.01;37.01
71047;SHT31;58703;48.978;8.982;2022-07-24T10:01:07;31.07;37.34
71047;SHT31;58703;48.978;8.982;2022-07-24T10:03:36;31.74;38.67
71047;SHT31;58703;48.978;8.982;2022-07-24T10:06:05;31.92;39.52
71047;SHT31;58703;48.978;8.982;2022-07-24T10:08:32;32.64;38.14
71047;SHT31;58703;48.978;8.982;2022-07-24T10:10:59;33.18;37.53
71047;SHT31;58703;48.978;8.982;2022-07-24T10:13:25;33.23;36.32
71047;SHT31;58703;48.978;8.982;2022-07-24T10:21:37;30.17;41.64
71047;SHT31;58703;48.978;8.982;2022-07-24T10:26:48;31.24;39.08
71047;SHT31;58703;48.978;8.982;2022-07-24T10:29:23;31.98;37.47
71047;SHT31;58703;48.978;8.982;2022-07-24T10:39:54;33.18;35.86
71047;SHT31;58703;48.978;8.982;2022-07-24T10:42:22;33.76;34.96
71047;SHT31;58703;48.978;8.982;2022-07-24T10:45:17;33.31;37.76
71047;SHT31;58703;48.978;8.982;2022-07-24T10:47:44;33.44;35.62
71047;SHT31;58703;48.978;8.982;2022-07-24T10:50:10;33.18;35.36
71047;SHT31;58703;48.978;8.982;2022-07-24T10:52:36;33.07;35.35
71047;SHT31;58703;48.978;8.982;2022-07-24T10:55:21;32.82;36.74
71047;SHT31;58703;48.978;8.982;2022-07-24T10:57:52;33.64;35.92
71047;SHT31;58703;48.978;8.982;2022-07-24T11:00:30;33.71;35.60
71047;SHT31;58703;48.978;8.982;2022-07-24T11:03:02;33.61;34.91
71047;SHT31;58703;48.978;8.982;2022-07-24T11:05:34;32.56;36.22
71047;SHT31;58703;48.978;8.982;2022-07-24T11:08:12;33.21;36.24
71047;SHT31;58703;48.978;8.982;2022-07-24T11:10:54;32.88;36.08
71047;SHT31;58703;48.978;8.982;2022-07-24T11:19:25;31.09;39.14
71047;SHT31;58703;48.978;8.982;2022-07-24T11:21:33;29.57;41.94
71047;SHT31;58703;48.978;8.982;2022-07-24T11:26:57;30.51;39.64
71047;SHT31;58703;48.978;8.982;2022-07-24T11:29:25;30.93;39.67
71047;SHT31;58703;48.978;8.982;2022-07-24T11:31:58;32.44;37.88
71047;SHT31;58703;48.978;8.982;2022-07-24T11:34:24;32.82;36.05
71047;SHT31;58703;48.978;8.982;2022-07-24T11:36:52;31.42;38.29
71047;SHT31;58703;48.978;8.982;2022-07-24T11:39:20;31.31;37.96
71047;SHT31;58703;48.978;8.982;2022-07-24T11:41:53;31.19;39.51
71047;SHT31;58703;48.978;8.982;2022-07-24T11:47:10;31.03;38.99
71047;SHT31;58703;48.978;8.982;2022-07-24T11:49:47;31.04;38.65
71047;SHT31;58703;48.978;8.982;2022-07-24T11:54:51;31.95;37.87
71047;SHT31;58703;48.978;8.982;2022-07-24T11:57:26;32.99;36.59
71047;SHT31;58703;48.978;8.982;2022-07-24T11:59:53;33.24;35.30
71047;SHT31;58703;48.978;8.982;2022-07-24T12:02:21;34.31;33.36
71047;SHT31;58703;48.978;8.982;2022-07-24T12:04:47;35.10;31.80
71047;SHT31;58703;48.978;8.982;2022-07-24T12:07:19;35.78;31.50
71047;SHT31;58703;48.978;8.982;2022-07-24T12:09:51;35.34;32.57
71047;SHT31;58703;48.978;8.982;2022-07-24T12:12:22;33.24;35.01
71047;SHT31;58703;48.978;8.982;2022-07-24T12:14:51;33.21;35.55
71047;SHT31;58703;48.978;8.982;2022-07-24T12:17:16;32.90;35.95
71047;SHT31;58703;48.978;8.982;2022-07-24T12:19:50;32.48;36.02
71047;SHT31;58703;48.978;8.982;2022-07-24T12:22:18;33.18;34.66
71047;SHT31;58703;48.978;8.982;2022-07-24T12:24:44;33.15;35.26
71047;SHT31;58703;48.978;8.982;2022-07-24T12:27:09;33.81;34.47
71047;SHT31;58703;48.978;8.982;2022-07-24T12:29:42;32.93;36.32
71047;SHT31;58703;48.978;8.982;2022-07-24T12:34:44;32.90;36.20
71047;SHT31;58703;48.978;8.982;2022-07-24T12:37:17;32.29;37.00
71047;SHT31;58703;48.978;8.982;2022-07-24T12:39:50;31.93;38.07
71047;SHT31;58703;48.978;8.982;2022-07-24T12:42:17;32.35;37.32
71047;SHT31;58703;48.978;8.982;2022-07-24T12:44:45;32.86;36.58
71047;SHT31;58703;48.978;8.982;2022-07-24T12:47:12;34.74;33.38
71047;SHT31;58703;48.978;8.982;2022-07-24T12:49:42;33.98;33.86
71047;SHT31;58703;48.978;8.982;2022-07-24T12:52:22;35.08;32.96
71047;SHT31;58703;48.978;8.982;2022-07-24T12:54:49;35.74;32.16
71047;SHT31;58703;48.978;8.982;2022-07-24T12:57:15;34.50;33.20
71047;SHT31;58703;48.978;8.982;2022-07-24T12:59:47;33.65;34.48
71047;SHT31;58703;48.978;8.982;2022-07-24T13:02:22;33.69;34.57
71047;SHT31;58703;48.978;8.982;2022-07-24T13:04:51;33.34;35.57
71047;SHT31;58703;48.978;8.982;2022-07-24T13:07:20;34.25;33.91
71047;SHT31;58703;48.978;8.982;2022-07-24T13:09:47;36.00;31.32
71047;SHT31;58703;48.978;8.982;2022-07-24T13:12:13;35.45;32.58
71047;SHT31;58703;48.978;8.982;2022-07-24T13:14:39;34.16;33.76
71047;SHT31;58703;48.978;8.982;2022-07-24T13:17:16;35.35;32.13
71047;SHT31;58703;48.978;8.982;2022-07-24T13:19:45;35.28;32.23
71047;SHT31;58703;48.978;8.982;2022-07-24T13:22:14;37.35;30.52
71047;SHT31;58703;48.978;8.982;2022-07-24T13:24:41;39.13;28.14
71047;SHT31;58703;48.978;8.982;2022-07-24T13:27:10;39.15;28.11
71047;SHT31;58703;48.978;8.982;2022-07-24T13:29:40;37.51;29.20
71047;SHT31;58703;48.978;8.982;2022-07-24T13:32:08;37.32;30.28
71047;SHT31;58703;48.978;8.982;2022-07-24T13:34:33;36.28;30.70
71047;SHT31;58703;48.978;8.982;2022-07-24T13:37:00;34.91;32.72
71047;SHT31;58703;48.978;8.982;2022-07-24T13:39:26;34.87;33.02
71047;SHT31;58703;48.978;8.982;2022-07-24T13:41:51;35.77;32.24
71047;SHT31;58703;48.978;8.982;2022-07-24T13:44:18;35.90;31.91
71047;SHT31;58703;48.978;8.982;2022-07-24T13:46:44;36.49;31.15
71047;SHT31;58703;48.978;8.982;2022-07-24T13:49:10;36.83;31.03
71047;SHT31;58703;48.978;8.982;2022-07-24T13:51:36;36.36;31.24
71047;SHT31;58703;48.978;8.982;2022-07-24T13:54:04;35.08;32.42
71047;SHT31;58703;48.978;8.982;2022-07-24T13:56:29;35.85;32.40
71047;SHT31;58703;48.978;8.982;2022-07-24T13:58:58;35.21;32.23
71047;SHT31;58703;48.978;8.982;2022-07-24T14:01:24;36.66;30.20
71047;SHT31;58703;48.978;8.982;2022-07-24T14:03:52;37.60;29.17
71047;SHT31;58703;48.978;8.982;2022-07-24T14:06:19;37.44;29.70
71047;SHT31;58703;48.978;8.982;2022-07-24T14:08:46;37.32;29.82
71047;SHT31;58703;48.978;8.982;2022-07-24T14:11:12;38.81;27.86
71047;SHT31;58703;48.978;8.982;2022-07-24T14:13:37;40.67;25.95
71047;SHT31;58703;48.978;8.982;2022-07-24T14:16:03;39.86;27.33
71047;SHT31;58703;48.978;8.982;2022-07-24T14:18:30;38.98;27.58
71047;SHT31;58703;48.978;8.982;2022-07-24T14:20:57;39.75;27.37
71047;SHT31;58703;48.978;8.982;2022-07-24T14:23:23;40.74;26.08
71047;SHT31;58703;48.978;8.982;2022-07-24T14:25:48;41.43;25.70
71047;SHT31;58703;48.978;8.982;2022-07-24T14:28:14;41.32;25.90
71047;SHT31;58703;48.978;8.982;2022-07-24T14:30:40;40.15;26.55
71047;SHT31;58703;48.978;8.982;2022-07-24T14:33:06;40.12;26.72
71047;SHT31;58703;48.978;8.982;2022-07-24T14:35:33;40.33;26.59
71047;SHT31;58703;48.978;8.982;2022-07-24T14:37:59;40.10;27.12
71047;SHT31;58703;48.978;8.982;2022-07-24T14:40:25;38.75;28.46
71047;SHT31;58703;48.978;8.982;2022-07-24T14:42:51;40.26;26.55
71047;SHT31;58703;48.978;8.982;2022-07-24T14:45:17;40.56;26.13
71047;SHT31;58703;48.978;8.982;2022-07-24T14:47:42;40.03;27.43
71047;SHT31;58703;48.978;8.982;2022-07-24T14:50:08;37.85;29.14
71047;SHT31;58703;48.978;8.982;2022-07-24T14:52:37;41.11;26.51
71047;SHT31;58703;48.978;8.982;2022-07-24T14:55:07;41.66;25.21
71047;SHT31;58703;48.978;8.982;2022-07-24T14:57:33;40.15;26.77
71047;SHT31;58703;48.978;8.982;2022-07-24T14:59:59;38.29;28.46
71047;SHT31;58703;48.978;8.982;2022-07-24T15:02:25;39.01;28.42
71047;SHT31;58703;48.978;8.982;2022-07-24T15:04:50;40.46;25.86
71047;SHT31;58703;48.978;8.982;2022-07-24T15:07:16;40.05;26.45
71047;SHT31;58703;48.978;8.982;2022-07-24T15:09:42;41.31;25.17
71047;SHT31;58703;48.978;8.982;2022-07-24T15:12:08;41.46;25.46
71047;SHT31;58703;48.978;8.982;2022-07-24T15:14:33;38.97;27.97
71047;SHT31;58703;48.978;8.982;2022-07-24T15:17:00;39.69;27.15
71047;SHT31;58703;48.978;8.982;2022-07-24T15:19:26;40.48;26.27
71047;SHT31;58703;48.978;8.982;2022-07-24T15:21:53;39.08;27.70
71047;SHT31;58703;48.978;8.982;2022-07-24T15:24:19;37.96;29.31
71047;SHT31;58703;48.978;8.982;2022-07-24T15:26:45;37.83;29.01
71047;SHT31;58703;48.978;8.982;2022-07-24T15:29:11;37.46;29.03
71047;SHT31;58703;48.978;8.982;2022-07-24T15:31:36;37.98;29.19
71047;SHT31;58703;48.978;8.982;2022-07-24T15:34:03;36.93;30.25
71047;SHT31;58703;48.978;8.982;2022-07-24T15:36:30;38.19;28.75
71047;SHT31;58703;48.978;8.982;2022-07-24T15:38:55;38.90;27.65
71047;SHT31;58703;48.978;8.982;2022-07-24T15:41:21;40.13;26.95
71047;SHT31;58703;48.978;8.982;2022-07-24T15:43:47;40.35;26.53
71047;SHT31;58703;48.978;8.982;2022-07-24T15:46:13;40.17;26.95
71047;SHT31;58703;48.978;8.982;2022-07-24T15:48:41;37.81;28.96
71047;SHT31;58703;48.978;8.982;2022-07-24T15:51:06;37.69;29.36
71047;SHT31;58703;48.978;8.982;2022-07-24T15:53:32;38.66;28.48
71047;SHT31;58703;48.978;8.982;2022-07-24T15:55:57;38.06;28.45
71047;SHT31;58703;48.978;8.982;2022-07-24T15:58:23;39.70;27.31
71047;SHT31;58703;48.978;8.982;2022-07-24T16:00:48;40.99;26.14
71047;SHT31;58703;48.978;8.982;2022-07-24T16:03:14;40.68;25.70
71047;SHT31;58703;48.978;8.982;2022-07-24T16:05:40;39.14;27.30
71047;SHT31;58703;48.978;8.982;2022-07-24T16:08:06;40.88;26.15